Time;durP1;ratioP1;P1;durP2;ratioP2;P2;SDS_P1;SDS_P2;PMS_P1;PMS_P2;Temp;Humidity;BMP_temperature;BMP_pressure;BME280_temperature;BME280_humidity;BME280_pressure;Samples;Min_cycle;Max_cycle;Signal;HPM_P1;HPM_P2
2021/06/25 00:00:17;;;;;;;5.85;5.20;;;18.80;63.40;;;;;;5028982;28;20057;-84
2021/06/25 00:02:43;;;;;;;4.88;4.45;;;18.80;63.50;;;;;;5029598;28;20676;-83
2021/06/25 00:05:10;;;;;;;6.60;4.57;;;18.70;63.30;;;;;;5045885;28;20029;-85
2021/06/25 00:07:37;;;;;;;6.38;5.00;;;18.70;63.40;;;;;;5029627;28;20029;-84
2021/06/25 00:10:05;;;;;;;6.07;4.95;;;18.70;63.40;;;;;;5028820;28;20029;-85
2021/06/25 00:12:31;;;;;;;6.95;5.32;;;18.70;63.50;;;;;;5029173;28;20143;-84
2021/06/25 00:14:57;;;;;;;6.18;5.25;;;18.70;63.50;;;;;;5029587;28;20061;-83
2021/06/25 00:17:24;;;;;;;6.00;5.40;;;18.70;63.60;;;;;;5045874;28;20548;-85
2021/06/25 00:19:51;;;;;;;7.82;6.13;;;18.70;63.60;;;;;;5029419;28;20043;-85
2021/06/25 00:22:18;;;;;;;5.43;4.82;;;18.70;63.60;;;;;;5045904;28;20037;-87
2021/06/25 00:24:44;;;;;;;5.15;4.75;;;18.60;63.50;;;;;;5029662;28;20483;-84
2021/06/25 00:27:11;;;;;;;5.97;5.38;;;18.70;63.70;;;;;;5030310;28;20029;-88
2021/06/25 00:29:38;;;;;;;6.07;5.20;;;18.60;63.50;;;;;;5046626;28;20400;-86
2021/06/25 00:32:04;;;;;;;8.25;5.78;;;18.60;63.60;;;;;;5029760;28;20079;-89
2021/06/25 00:34:31;;;;;;;8.32;5.57;;;18.60;63.60;;;;;;5047480;28;20517;-86
2021/06/25 00:36:57;;;;;;;7.13;5.45;;;18.60;63.60;;;;;;5029843;28;20032;-86
2021/06/25 00:39:23;;;;;;;10.02;5.10;;;18.60;63.70;;;;;;5029586;28;20029;-87
2021/06/25 00:41:49;;;;;;;6.13;5.53;;;18.60;63.70;;;;;;5046046;28;20041;-86
2021/06/25 00:44:20;;;;;;;7.30;5.47;;;18.60;63.70;;;;;;5046024;28;20051;-85
2021/06/25 00:46:46;;;;;;;6.63;5.70;;;18.60;63.80;;;;;;5047258;28;20384;-84
2021/06/25 00:49:14;;;;;;;8.45;5.43;;;18.60;63.80;;;;;;5046040;28;20032;-84
2021/06/25 00:51:40;;;;;;;6.47;5.40;;;18.60;63.80;;;;;;5029274;28;20048;-83
2021/06/25 00:54:08;;;;;;;5.40;4.90;;;18.50;63.70;;;;;;5049188;28;20180;-84
2021/06/25 00:56:34;;;;;;;8.82;5.78;;;18.50;63.70;;;;;;5032622;28;20500;-84
2021/06/25 00:59:20;;;;;;;6.20;5.13;;;18.50;63.70;;;;;;5016020;28;20029;-85
2021/06/25 01:01:57;;;;;;;6.00;5.30;;;18.50;63.80;;;;;;5048821;28;20548;-85
2021/06/25 01:04:27;;;;;;;5.45;4.75;;;18.50;63.70;;;;;;5050377;28;20040;-86
2021/06/25 01:07:34;;;;;;;7.32;5.53;;;18.40;63.60;;;;;;5034207;28;20037;-88
2021/06/25 01:10:18;;;;;;;5.97;5.15;;;18.40;63.70;;;;;;5051295;28;20423;-85
2021/06/25 01:12:45;;;;;;;5.30;4.80;;;18.40;63.60;;;;;;5017134;28;20025;-86
2021/06/25 01:15:13;;;;;;;5.32;4.88;;;18.40;63.70;;;;;;5017287;28;20118;-85
2021/06/25 01:17:45;;;;;;;5.35;4.85;;;18.40;63.70;;;;;;5017013;28;20033;-85
2021/06/25 01:20:22;;;;;;;6.93;5.13;;;18.30;63.60;;;;;;5049051;28;20470;-85
2021/06/25 01:22:49;;;;;;;5.43;4.88;;;18.40;63.80;;;;;;5050195;28;20048;-86
2021/06/25 01:25:18;;;;;;;6.13;5.22;;;18.30;63.70;;;;;;5050282;28;20421;-87
2021/06/25 01:27:48;;;;;;;5.80;5.20;;;18.30;63.80;;;;;;5033398;28;20481;-88
2021/06/25 01:30:25;;;;;;;5.90;5.25;;;18.30;63.80;;;;;;5049405;28;20190;-87
2021/06/25 01:32:54;;;;;;;6.57;4.80;;;18.20;63.70;;;;;;5033565;28;20049;-87
2021/06/25 01:35:21;;;;;;;5.65;5.05;;;18.30;63.90;;;;;;5034777;28;20089;-86
2021/06/25 01:37:48;;;;;;;5.18;4.47;;;18.20;63.70;;;;;;5050160;28;20522;-88
2021/06/25 01:40:16;;;;;;;5.90;5.25;;;18.20;63.70;;;;;;5030916;28;20021;-87
2021/06/25 01:42:44;;;;;;;4.90;4.40;;;18.20;63.80;;;;;;5014151;28;20042;-86
2021/06/25 01:45:12;;;;;;;5.40;4.90;;;18.20;63.80;;;;;;5014682;28;20025;-83
2021/06/25 01:47:40;;;;;;;6.03;5.15;;;18.20;63.90;;;;;;5031059;28;20030;-83
2021/06/25 01:50:17;;;;;;;5.15;4.72;;;18.20;63.90;;;;;;5032492;28;20370;-84
2021/06/25 01:52:56;;;;;;;5.00;4.50;;;18.10;63.70;;;;;;5032813;28;20401;-85
2021/06/25 01:55:23;;;;;;;6.10;4.70;;;18.10;63.80;;;;;;5032693;28;20021;-86
2021/06/25 01:57:53;;;;;;;5.10;4.60;;;18.10;63.80;;;;;;5017061;28;20037;-85
2021/06/25 02:00:21;;;;;;;6.57;4.80;;;18.10;63.90;;;;;;5016494;28;20056;-84
2021/06/25 02:02:47;;;;;;;4.65;4.25;;;18.10;63.90;;;;;;5031921;28;20044;-84
2021/06/25 02:05:15;;;;;;;4.68;4.07;;;18.10;63.90;;;;;;5033227;28;20079;-84
2021/06/25 02:07:42;;;;;;;6.57;4.90;;;18.10;64.00;;;;;;5033724;28;20091;-87
2021/06/25 02:10:11;;;;;;;5.35;4.82;;;18.10;64.00;;;;;;5018023;28;20036;-87
2021/06/25 02:12:39;;;;;;;5.32;4.82;;;18.10;64.10;;;;;;5033900;28;20049;-87
2021/06/25 02:15:08;;;;;;;4.75;4.10;;;18.10;64.10;;;;;;5017626;28;20026;-88
2021/06/25 02:17:39;;;;;;;5.78;4.70;;;18.00;64.00;;;;;;5033516;28;20474;-87
2021/06/25 02:20:09;;;;;;;6.00;4.73;;;18.00;64.00;;;;;;5033565;28;20062;-85
2021/06/25 02:22:51;;;;;;;5.32;4.25;;;18.00;64.00;;;;;;5033170;28;20413;-86
2021/06/25 02:25:20;;;;;;;4.32;3.92;;;18.00;64.10;;;;;;5016541;28;20030;-83
2021/06/25 02:27:51;;;;;;;4.95;4.22;;;18.00;64.10;;;;;;5033656;28;20050;-89
2021/06/25 02:30:39;;;;;;;4.40;4.00;;;18.00;64.10;;;;;;5017160;28;20030;-89
2021/06/25 02:33:10;;;;;;;5.10;4.65;;;18.00;64.10;;;;;;5033104;28;20106;-83
2021/06/25 02:35:36;;;;;;;4.22;3.85;;;18.00;64.10;;;;;;5016177;28;20052;-87
2021/06/25 02:38:03;;;;;;;5.25;4.47;;;18.00;64.20;;;;;;5031453;28;20033;-85
2021/06/25 02:40:29;;;;;;;4.90;4.47;;;18.00;64.20;;;;;;5031602;28;20037;-86
2021/06/25 02:42:57;;;;;;;4.60;3.70;;;18.00;64.20;;;;;;5015618;28;20041;-86
2021/06/25 02:45:23;;;;;;;4.03;3.63;;;18.00;64.30;;;;;;5015881;28;20393;-83
2021/06/25 02:47:49;;;;;;;4.15;3.75;;;18.00;64.20;;;;;;4999231;28;20025;-85
2021/06/25 02:50:16;;;;;;;4.45;3.67;;;18.00;64.30;;;;;;5031512;28;20116;-85
2021/06/25 02:52:44;;;;;;;6.80;4.00;;;18.00;64.30;;;;;;5015121;28;20111;-85
2021/06/25 02:55:11;;;;;;;4.50;4.10;;;18.00;64.30;;;;;;5031581;28;20040;-85
2021/06/25 02:57:40;;;;;;;4.05;3.58;;;18.00;64.30;;;;;;5031434;28;20029;-85
2021/06/25 03:00:11;;;;;;;4.28;3.88;;;18.00;64.30;;;;;;5031375;28;20116;-84
2021/06/25 03:02:38;;;;;;;5.68;4.00;;;18.00;64.40;;;;;;5014648;28;20060;-83
2021/06/25 03:05:06;;;;;;;3.90;3.60;;;18.00;64.40;;;;;;5032546;28;20037;-83
2021/06/25 03:07:32;;;;;;;3.80;3.50;;;18.00;64.40;;;;;;5047315;28;20555;-83
2021/06/25 03:09:58;;;;;;;4.25;3.85;;;18.00;64.40;;;;;;5031203;28;20061;-87
2021/06/25 03:12:24;;;;;;;5.00;3.67;;;18.00;64.40;;;;;;5031168;28;20594;-85
2021/06/25 03:14:50;;;;;;;4.40;4.00;;;18.00;64.40;;;;;;5031154;28;20493;-84
2021/06/25 03:17:16;;;;;;;4.93;3.70;;;18.00;64.50;;;;;;5047772;28;20110;-85
2021/06/25 03:19:42;;;;;;;3.40;3.10;;;18.00;64.50;;;;;;5047439;28;20037;-85
2021/06/25 03:22:08;;;;;;;4.50;3.50;;;18.00;64.50;;;;;;5014352;28;20535;-86
2021/06/25 03:24:34;;;;;;;3.45;3.15;;;18.00;64.50;;;;;;5047710;28;20452;-86
2021/06/25 03:27:01;;;;;;;4.60;3.78;;;18.00;64.50;;;;;;5014153;28;20083;-83
2021/06/25 03:29:27;;;;;;;3.97;3.33;;;18.00;64.60;;;;;;5032158;28;20036;-84
2021/06/25 03:31:53;;;;;;;4.00;3.50;;;18.00;64.60;;;;;;5030906;28;20074;-85
2021/06/25 03:34:19;;;;;;;4.50;3.53;;;17.90;64.40;;;;;;5031113;28;20397;-88
2021/06/25 03:36:45;;;;;;;3.50;3.20;;;17.90;64.40;;;;;;5031405;28;20025;-84
2021/06/25 03:39:11;;;;;;;4.18;3.75;;;17.90;64.50;;;;;;5032244;28;20375;-83
2021/06/25 03:41:37;;;;;;;4.53;3.30;;;17.90;64.50;;;;;;5030369;28;20489;-82
2021/06/25 03:44:03;;;;;;;4.05;3.47;;;17.90;64.50;;;;;;5032187;28;20112;-82
2021/06/25 03:46:29;;;;;;;4.22;3.10;;;17.90;64.50;;;;;;5031715;28;20033;-82
2021/06/25 03:48:55;;;;;;;3.35;3.05;;;17.90;64.60;;;;;;5032066;28;20546;-82
2021/06/25 03:51:21;;;;;;;3.67;3.38;;;17.90;64.60;;;;;;5030317;28;20075;-82
2021/06/25 03:53:48;;;;;;;4.13;3.58;;;17.90;64.60;;;;;;5047053;28;20108;-83
2021/06/25 03:56:15;;;;;;;5.18;3.45;;;17.90;64.60;;;;;;5031696;28;20474;-83
2021/06/25 03:58:49;;;;;;;3.22;2.92;;;17.90;64.60;;;;;;5031327;28;20025;-83
2021/06/25 04:01:17;;;;;;;4.65;3.35;;;17.90;64.70;;;;;;5030642;28;20064;-82
2021/06/25 04:03:43;;;;;;;3.45;3.15;;;17.90;64.70;;;;;;5013796;28;20063;-81
2021/06/25 04:06:09;;;;;;;3.40;3.10;;;17.90;64.60;;;;;;5013852;28;20035;-82
2021/06/25 04:08:36;;;;;;;3.28;2.97;;;17.90;64.60;;;;;;5030035;28;20033;-83
2021/06/25 04:11:04;;;;;;;3.42;3.00;;;17.90;64.70;;;;;;5013936;28;20132;-83
2021/06/25 04:13:30;;;;;;;3.45;2.90;;;17.90;64.70;;;;;;5030354;28;20049;-84
2021/06/25 04:15:57;;;;;;;3.25;2.78;;;17.90;64.70;;;;;;5013975;28;20108;-84
2021/06/25 04:18:24;;;;;;;3.15;2.85;;;17.90;64.70;;;;;;5030604;28;20357;-84
2021/06/25 04:20:52;;;;;;;3.95;3.03;;;17.90;64.70;;;;;;5014127;28;20103;-83
2021/06/25 04:23:20;;;;;;;4.60;2.70;;;17.90;64.80;;;;;;5030322;28;20048;-84
2021/06/25 04:25:47;;;;;;;2.92;2.70;;;17.90;64.70;;;;;;5014329;28;20037;-84
2021/06/25 04:28:15;;;;;;;4.10;2.63;;;17.90;64.80;;;;;;5049701;28;20034;-85
2021/06/25 04:30:43;;;;;;;3.60;3.13;;;17.90;64.80;;;;;;5018172;28;20030;-84
2021/06/25 04:33:12;;;;;;;3.60;3.08;;;17.90;64.80;;;;;;5033838;28;20115;-84
2021/06/25 04:35:41;;;;;;;3.30;3.00;;;17.90;64.80;;;;;;5017479;28;20037;-83
2021/06/25 04:38:08;;;;;;;2.70;2.50;;;17.90;64.80;;;;;;5034585;28;20120;-84
2021/06/25 04:40:38;;;;;;;2.63;2.42;;;17.90;64.80;;;;;;5017601;28;20041;-84
2021/06/25 04:43:10;;;;;;;4.63;2.97;;;17.90;64.80;;;;;;5017414;28;20056;-85
2021/06/25 04:45:40;;;;;;;2.80;2.60;;;17.90;64.80;;;;;;5034457;28;20126;-86
2021/06/25 04:48:09;;;;;;;2.83;2.53;;;17.90;64.80;;;;;;5022505;28;20037;-85
2021/06/25 04:50:38;;;;;;;2.65;2.35;;;17.90;64.80;;;;;;5034022;28;20039;-86
2021/06/25 04:53:24;;;;;;;2.60;2.40;;;17.90;64.80;;;;;;5050761;28;20049;-87
2021/06/25 04:55:54;;;;;;;2.53;2.33;;;17.90;64.80;;;;;;5034512;28;20079;-84
2021/06/25 04:58:26;;;;;;;2.70;2.50;;;17.90;64.80;;;;;;5030813;28;20076;-85
2021/06/25 05:01:02;;;;;;;2.53;2.33;;;17.90;64.70;;;;;;5030235;28;20064;-84
2021/06/25 05:03:28;;;;;;;3.20;2.67;;;17.90;64.70;;;;;;5013333;28;20037;-83
2021/06/25 05:05:59;;;;;;;2.95;2.60;;;17.90;64.80;;;;;;5028572;28;20056;-84
2021/06/25 05:08:34;;;;;;;2.58;2.38;;;17.90;64.80;;;;;;5029422;28;20037;-85
2021/06/25 05:11:44;;;;;;;2.42;1.95;;;18.00;64.90;;;;;;5030471;28;20057;-88
2021/06/25 05:14:40;;;;;;;3.38;2.45;;;18.00;65.00;;;;;;5030059;28;20089;-89
2021/06/25 05:17:06;;;;;;;2.85;2.40;;;18.00;64.90;;;;;;5030584;28;20397;-87
2021/06/25 05:19:32;;;;;;;2.60;2.20;;;18.00;65.30;;;;;;5048974;28;20025;-87
2021/06/25 05:21:58;;;;;;;3.40;2.50;;;18.10;65.00;;;;;;5031878;28;20044;-86
2021/06/25 05:24:25;;;;;;;2.42;2.22;;;18.10;65.00;;;;;;5049474;28;20422;-85
2021/06/25 05:26:50;;;;;;;3.22;2.17;;;18.10;64.90;;;;;;5064908;28;20606;-84
2021/06/25 05:29:17;;;;;;;2.53;2.10;;;18.10;64.90;;;;;;5016448;28;20108;-85
2021/06/25 05:31:44;;;;;;;2.40;2.20;;;18.10;64.90;;;;;;5031863;28;20072;-80
2021/06/25 05:34:39;;;;;;;2.33;2.10;;;18.10;64.80;;;;;;5047903;28;20029;-84
2021/06/25 05:37:08;;;;;;;3.45;2.42;;;18.10;64.90;;;;;;5049149;28;20466;-85
2021/06/25 05:40:01;;;;;;;2.33;2.03;;;18.20;64.90;;;;;;5048706;28;20025;-86
2021/06/25 05:42:32;;;;;;;2.25;2.05;;;18.10;64.80;;;;;;5047326;28;20044;-80
2021/06/25 05:44:58;;;;;;;3.53;2.50;;;18.20;64.90;;;;;;5020017;28;20037;-79
2021/06/25 05:47:24;;;;;;;2.25;1.90;;;18.20;64.90;;;;;;5034733;28;20071;-78
2021/06/25 05:49:53;;;;;;;2.30;2.10;;;18.10;64.70;;;;;;5047891;28;20068;-79
2021/06/25 05:52:21;;;;;;;1.95;1.85;;;18.20;64.90;;;;;;5046615;28;20032;-77
2021/06/25 05:54:47;;;;;;;2.53;2.33;;;18.20;65.00;;;;;;5030735;28;20036;-78
2021/06/25 05:57:13;;;;;;;2.28;2.03;;;18.20;64.90;;;;;;5047535;28;20365;-80
2021/06/25 05:59:40;;;;;;;2.17;1.90;;;18.20;64.90;;;;;;5047917;28;20029;-81
2021/06/25 06:02:06;;;;;;;2.40;2.20;;;18.30;65.00;;;;;;5029676;28;20128;-79
2021/06/25 06:04:32;;;;;;;3.20;2.72;;;18.30;65.00;;;;;;5046892;28;20067;-76
2021/06/25 06:07:01;;;;;;;2.50;2.17;;;18.30;64.90;;;;;;5046946;28;20444;-78
2021/06/25 06:09:27;;;;;;;1.90;1.70;;;18.40;65.10;;;;;;5044843;28;20052;-79
2021/06/25 06:11:53;;;;;;;6.35;2.30;;;18.40;65.30;;;;;;5030003;28;20045;-81
2021/06/25 06:14:19;;;;;;;4.07;2.05;;;18.50;65.60;;;;;;5027246;28;20650;-85
2021/06/25 06:20:25;;;;;;;2.53;1.90;;;18.60;66.00;;;;;;5030338;28;20040;-91
2021/06/25 06:36:44;;;;;;;1.95;1.77;;;19.00;66.20;;;;;;5010372;28;20285;-79
2021/06/25 06:39:07;;;;;;;5.30;1.85;;;19.00;66.20;;;;;;5026148;28;20053;-78
2021/06/25 06:41:36;;;;;;;2.75;1.88;;;19.10;66.20;;;;;;5008936;28;20049;-79
2021/06/25 06:44:03;;;;;;;2.60;2.08;;;19.10;66.20;;;;;;5045990;28;20025;-78
2021/06/25 06:46:31;;;;;;;5.25;1.75;;;19.20;66.30;;;;;;5028710;28;20029;-79
2021/06/25 06:48:57;;;;;;;1.85;1.75;;;19.20;66.10;;;;;;5026203;28;20076;-76
2021/06/25 06:51:24;;;;;;;2.13;1.80;;;19.30;66.20;;;;;;5009685;28;20489;-75
2021/06/25 06:53:51;;;;;;;4.95;2.03;;;19.30;66.10;;;;;;5021380;28;20583;-77
2021/06/25 06:56:22;;;;;;;2.67;2.05;;;19.30;66.00;;;;;;5027781;28;20040;-76
2021/06/25 06:58:50;;;;;;;4.72;2.35;;;19.50;66.60;;;;;;5017862;28;20485;-77
2021/06/25 07:01:17;;;;;;;2.70;2.05;;;19.70;66.60;;;;;;5009393;28;20403;-78
2021/06/25 07:03:43;;;;;;;4.07;2.28;;;20.00;66.70;;;;;;5023166;28;20310;-79
2021/06/25 07:06:09;;;;;;;3.65;2.40;;;20.30;66.80;;;;;;5045873;28;20047;-78
2021/06/25 07:08:35;;;;;;;2.00;1.83;;;20.60;66.80;;;;;;5036345;28;20077;-78
2021/06/25 07:11:03;;;;;;;2.95;2.00;;;20.90;66.60;;;;;;5009896;28;20030;-77
2021/06/25 07:13:29;;;;;;;2.50;1.73;;;21.30;66.50;;;;;;5042117;28;20025;-80
2021/06/25 07:15:55;;;;;;;6.40;1.92;;;21.60;66.10;;;;;;5009844;28;20044;-78
2021/06/25 07:18:23;;;;;;;4.07;2.40;;;22.00;65.80;;;;;;5035019;28;20388;-77
2021/06/25 07:20:49;;;;;;;3.13;1.80;;;22.30;65.40;;;;;;5047083;28;20063;-78
2021/06/25 07:23:15;;;;;;;4.30;1.90;;;22.50;64.90;;;;;;5046102;28;20469;-78
2021/06/25 07:25:41;;;;;;;4.47;2.13;;;22.80;64.40;;;;;;5047717;28;20040;-78
2021/06/25 07:28:07;;;;;;;3.42;2.13;;;23.10;64.20;;;;;;5046530;28;20036;-79
2021/06/25 07:30:34;;;;;;;3.03;2.42;;;23.40;63.90;;;;;;5047332;28;20289;-78
2021/06/25 07:33:00;;;;;;;3.53;2.28;;;23.70;63.60;;;;;;5047799;28;20465;-79
2021/06/25 07:35:26;;;;;;;2.95;2.25;;;23.90;63.10;;;;;;5047814;28;20021;-80
2021/06/25 07:37:52;;;;;;;3.30;2.13;;;24.20;63.00;;;;;;5045748;28;20029;-79
2021/06/25 07:40:19;;;;;;;5.32;1.90;;;24.50;62.40;;;;;;5045612;28;20036;-78
2021/06/25 07:42:46;;;;;;;4.50;2.13;;;24.70;61.80;;;;;;5039553;28;20493;-79
2021/06/25 07:45:12;;;;;;;2.40;1.90;;;24.90;61.20;;;;;;5027141;28;20437;-79
2021/06/25 07:47:40;;;;;;;4.70;1.95;;;25.10;60.70;;;;;;5028615;28;20037;-78
2021/06/25 07:50:15;;;;;;;4.15;1.70;;;25.10;60.30;;;;;;5029006;28;20434;-78
2021/06/25 07:52:41;;;;;;;3.65;1.75;;;25.10;59.40;;;;;;5028786;28;20029;-77
2021/06/25 07:55:10;;;;;;;6.45;2.10;;;25.10;59.00;;;;;;5047362;28;20056;-79
2021/06/25 07:57:36;;;;;;;2.78;1.70;;;25.00;58.80;;;;;;5014218;28;20037;-80
2021/06/25 08:00:05;;;;;;;16.67;1.98;;;25.20;58.70;;;;;;5045734;28;20033;-80
2021/06/25 08:02:39;;;;;;;3.42;1.77;;;25.50;58.10;;;;;;5027506;28;20052;-80
2021/06/25 08:05:07;;;;;;;2.88;1.88;;;25.80;57.30;;;;;;5014459;28;20061;-79
2021/06/25 08:07:36;;;;;;;4.63;2.10;;;25.70;56.40;;;;;;5063591;28;20036;-79
2021/06/25 08:10:04;;;;;;;4.90;2.50;;;25.40;56.10;;;;;;5065959;28;20075;-78
2021/06/25 08:12:30;;;;;;;3.03;2.38;;;25.10;56.00;;;;;;5050687;28;20484;-79
2021/06/25 08:14:57;;;;;;;2.95;2.15;;;24.90;56.20;;;;;;5033373;28;20496;-79
2021/06/25 08:17:25;;;;;;;5.18;2.17;;;25.10;56.20;;;;;;5050428;28;20494;-78
2021/06/25 08:19:51;;;;;;;3.50;2.22;;;25.30;55.70;;;;;;5049698;28;20122;-79
2021/06/25 08:22:17;;;;;;;3.85;2.03;;;25.90;55.10;;;;;;5049044;28;20037;-80
2021/06/25 08:24:44;;;;;;;4.05;2.35;;;26.50;54.00;;;;;;5031950;28;20036;-79
2021/06/25 08:27:10;;;;;;;4.28;2.00;;;27.10;52.80;;;;;;5048073;28;20041;-79
2021/06/25 08:29:36;;;;;;;4.90;2.47;;;27.60;51.50;;;;;;5034037;28;20021;-79
2021/06/25 08:32:02;;;;;;;5.13;2.17;;;28.20;50.50;;;;;;5047333;28;20044;-78
2021/06/25 08:34:28;;;;;;;3.00;1.70;;;28.70;49.40;;;;;;5047727;28;20029;-80
2021/06/25 08:36:55;;;;;;;6.60;2.08;;;29.00;48.30;;;;;;5032675;28;20027;-81
2021/06/25 08:39:22;;;;;;;4.07;2.33;;;29.40;47.20;;;;;;5018640;28;20438;-78
2021/06/25 08:41:48;;;;;;;6.93;2.08;;;29.70;46.30;;;;;;5045647;28;20507;-77
2021/06/25 08:44:14;;;;;;;3.63;2.00;;;30.00;45.50;;;;;;5049044;28;20411;-78
2021/06/25 08:46:47;;;;;;;4.75;2.20;;;30.30;44.60;;;;;;5048590;28;20037;-78
2021/06/25 08:49:18;;;;;;;3.65;1.80;;;30.50;43.70;;;;;;5032165;28;20040;-78
2021/06/25 08:51:45;;;;;;;6.40;2.70;;;30.60;43.20;;;;;;5031960;28;20195;-78
2021/06/25 08:54:13;;;;;;;4.28;2.13;;;30.70;42.90;;;;;;5028516;28;20057;-78
2021/06/25 08:56:39;;;;;;;3.50;2.13;;;30.60;42.60;;;;;;5028734;28;20030;-78
2021/06/25 08:59:05;;;;;;;7.47;2.20;;;30.60;42.50;;;;;;5039605;28;20025;-80
2021/06/25 09:01:36;;;;;;;4.18;2.38;;;30.60;42.40;;;;;;5012313;28;20119;-80
2021/06/25 09:04:04;;;;;;;5.75;2.25;;;30.50;42.00;;;;;;5041666;28;20079;-79
2021/06/25 09:06:32;;;;;;;4.50;2.00;;;30.40;42.00;;;;;;5011936;28;20337;-79
2021/06/25 09:09:10;;;;;;;8.27;2.67;;;30.10;42.20;;;;;;5021285;28;20503;-78
2021/06/25 09:11:40;;;;;;;6.45;2.88;;;29.60;42.80;;;;;;5012006;28;20120;-79
2021/06/25 09:14:07;;;;;;;4.63;2.75;;;29.10;43.40;;;;;;5025120;28;20033;-80
2021/06/25 09:16:38;;;;;;;3.22;2.35;;;28.70;44.00;;;;;;5012142;28;20064;-78
2021/06/25 09:19:16;;;;;;;4.68;2.40;;;28.40;44.30;;;;;;5038265;28;20370;-79
2021/06/25 09:21:57;;;;;;;4.47;2.63;;;28.20;44.50;;;;;;5011695;28;20040;-78
2021/06/25 09:24:26;;;;;;;6.82;2.42;;;28.00;44.80;;;;;;5012082;28;20029;-78
2021/06/25 09:27:00;;;;;;;4.32;2.45;;;27.80;45.10;;;;;;5012588;28;20040;-79
2021/06/25 09:29:29;;;;;;;4.03;2.42;;;27.50;45.20;;;;;;5028610;28;20096;-79
2021/06/25 09:32:07;;;;;;;6.80;2.97;;;27.40;45.40;;;;;;5011861;28;20446;-80
2021/06/25 09:34:40;;;;;;;6.38;3.03;;;27.30;45.10;;;;;;5011720;28;20033;-79
2021/06/25 09:37:11;;;;;;;6.53;2.58;;;27.10;45.20;;;;;;5015504;28;20049;-79
2021/06/25 09:39:41;;;;;;;5.65;2.33;;;26.90;45.50;;;;;;5029703;28;20033;-79
2021/06/25 09:42:21;;;;;;;8.27;2.42;;;26.70;45.60;;;;;;5035247;28;20038;-76
2021/06/25 09:45:09;;;;;;;2.85;2.25;;;26.60;45.70;;;;;;5037170;28;20013;-80
2021/06/25 09:47:36;;;;;;;4.88;2.72;;;26.60;45.70;;;;;;5034336;28;20033;-77
2021/06/25 09:50:09;;;;;;;5.05;2.30;;;26.40;45.60;;;;;;5028511;28;20373;-78
2021/06/25 09:52:55;;;;;;;4.93;2.63;;;26.30;45.50;;;;;;5053036;28;20060;-77
2021/06/25 09:55:28;;;;;;;9.10;2.50;;;26.10;45.80;;;;;;5054730;28;20086;-78
2021/06/25 09:58:21;;;;;;;4.55;2.70;;;26.00;46.20;;;;;;5039448;28;20029;-77
2021/06/25 10:03:36;;;;;;;3.08;2.30;;;25.80;46.50;;;;;;5054993;28;20037;-79
2021/06/25 10:06:15;;;;;;;3.75;2.47;;;25.80;46.40;;;;;;5039332;28;20025;-79
2021/06/25 10:08:46;;;;;;;6.00;2.67;;;25.80;46.10;;;;;;5056040;28;20037;-78
2021/06/25 10:11:14;;;;;;;7.05;2.70;;;25.70;46.30;;;;;;5040424;28;20475;-77
2021/06/25 10:13:42;;;;;;;4.60;2.78;;;25.70;46.30;;;;;;5027944;28;20040;-77
2021/06/25 10:16:10;;;;;;;5.07;2.40;;;25.60;46.30;;;;;;5035798;28;20167;-78
2021/06/25 10:18:42;;;;;;;3.65;2.58;;;25.50;46.20;;;;;;5041285;28;20065;-80
2021/06/25 10:21:14;;;;;;;4.82;2.92;;;25.40;46.30;;;;;;5002232;28;20045;-79
2021/06/25 10:23:46;;;;;;;4.13;2.50;;;25.40;46.60;;;;;;5026479;28;20025;-79
2021/06/25 10:26:14;;;;;;;7.10;2.85;;;25.30;46.60;;;;;;5017616;28;20031;-79
2021/06/25 10:28:44;;;;;;;4.75;3.00;;;25.20;46.70;;;;;;5025062;28;20092;-79
2021/06/25 10:31:11;;;;;;;5.32;2.85;;;25.10;46.70;;;;;;5002502;28;20128;-78
2021/06/25 10:33:38;;;;;;;4.93;2.50;;;25.10;46.80;;;;;;5029560;28;20484;-77
2021/06/25 10:36:08;;;;;;;3.70;2.30;;;25.10;46.90;;;;;;5039291;28;20033;-79
2021/06/25 10:38:35;;;;;;;6.70;2.47;;;25.00;46.90;;;;;;5050321;28;20535;-79
2021/06/25 10:41:04;;;;;;;10.40;2.60;;;25.00;47.00;;;;;;5056384;28;20033;-79
2021/06/25 10:43:42;;;;;;;5.30;2.35;;;24.90;46.80;;;;;;5045789;28;20037;-79
2021/06/25 10:46:29;;;;;;;2.97;2.25;;;24.90;46.80;;;;;;5020373;28;20048;-80
2021/06/25 10:48:58;;;;;;;3.35;2.00;;;24.80;46.70;;;;;;5047868;28;20036;-80
2021/06/25 10:51:32;;;;;;;4.15;2.00;;;24.80;46.80;;;;;;5056357;28;20029;-79
2021/06/25 10:54:12;;;;;;;4.05;2.45;;;24.90;46.90;;;;;;5041880;28;20096;-80
2021/06/25 10:57:01;;;;;;;6.32;2.15;;;24.90;46.90;;;;;;5017246;28;20025;-79
2021/06/25 10:59:30;;;;;;;5.70;2.28;;;25.00;46.90;;;;;;5030369;28;20041;-80
2021/06/25 11:02:04;;;;;;;8.30;3.08;;;25.10;47.00;;;;;;5011543;28;20359;-81
2021/06/25 11:04:47;;;;;;;6.75;2.15;;;25.10;46.80;;;;;;5027911;28;20025;-79
2021/06/25 11:07:39;;;;;;;6.38;2.65;;;25.20;46.80;;;;;;5011563;28;20029;-78
2021/06/25 11:10:08;;;;;;;6.30;2.42;;;25.30;46.80;;;;;;5033709;28;20021;-79
2021/06/25 11:12:40;;;;;;;6.15;2.40;;;25.40;46.80;;;;;;5037649;28;20094;-81
2021/06/25 11:15:09;;;;;;;6.32;2.75;;;25.50;46.60;;;;;;5030290;28;20077;-80
2021/06/25 11:17:53;;;;;;;4.88;2.60;;;25.60;46.40;;;;;;5040382;28;20060;-79
2021/06/25 11:20:19;;;;;;;3.70;2.13;;;25.70;45.80;;;;;;5034604;28;20492;-81
2021/06/25 11:23:08;;;;;;;4.78;2.20;;;25.80;45.80;;;;;;5029318;28;20465;-80
2021/06/25 11:25:44;;;;;;;3.97;1.77;;;25.70;45.70;;;;;;4997137;28;20061;-80
2021/06/25 11:28:36;;;;;;;4.43;1.73;;;25.60;45.70;;;;;;5019415;28;20033;-80
2021/06/25 11:31:13;;;;;;;3.50;1.92;;;25.50;45.70;;;;;;5049575;28;20120;-80
2021/06/25 11:33:55;;;;;;;6.97;2.63;;;25.40;45.80;;;;;;5047804;28;20025;-79
2021/06/25 11:36:39;;;;;;;8.88;1.80;;;25.20;46.00;;;;;;5050203;28;20036;-80
2021/06/25 11:39:21;;;;;;;5.20;2.40;;;25.10;46.00;;;;;;5050747;28;20045;-78
2021/06/25 11:41:56;;;;;;;4.30;2.05;;;25.10;46.10;;;;;;5063600;28;20041;-79
2021/06/25 11:44:23;;;;;;;2.97;1.92;;;25.00;46.20;;;;;;5064973;28;20388;-78
2021/06/25 11:46:54;;;;;;;3.45;1.77;;;25.10;46.20;;;;;;5032233;28;20047;-77
2021/06/25 11:49:21;;;;;;;3.22;1.83;;;25.20;46.10;;;;;;5017582;28;20055;-77
2021/06/25 11:51:47;;;;;;;3.13;1.70;;;25.40;46.00;;;;;;5048822;28;20025;-77
2021/06/25 11:54:19;;;;;;;2.55;1.73;;;25.60;45.80;;;;;;5031684;28;20033;-77
2021/06/25 11:56:46;;;;;;;2.97;1.75;;;25.70;45.20;;;;;;5029191;28;20034;-77
2021/06/25 11:59:14;;;;;;;4.38;1.90;;;25.80;45.10;;;;;;5042435;28;20040;-77
2021/06/25 12:01:53;;;;;;;5.85;1.83;;;25.80;44.80;;;;;;5048508;28;20484;-75
2021/06/25 12:04:39;;;;;;;3.95;1.88;;;25.80;44.70;;;;;;5048566;28;20028;-75
2021/06/25 12:07:08;;;;;;;4.07;1.98;;;25.90;44.70;;;;;;5048690;28;20078;-74
2021/06/25 12:09:43;;;;;;;2.75;1.50;;;25.90;44.70;;;;;;5046518;28;20021;-74
2021/06/25 12:12:17;;;;;;;2.28;1.30;;;25.80;44.60;;;;;;5046694;28;20541;-74
2021/06/25 12:14:49;;;;;;;4.50;1.52;;;25.70;44.70;;;;;;5045874;28;20078;-74
2021/06/25 12:17:16;;;;;;;6.95;2.13;;;25.70;44.50;;;;;;5045816;28;20431;-75
2021/06/25 12:20:03;;;;;;;3.50;2.25;;;25.60;44.70;;;;;;5043884;28;20033;-75
2021/06/25 12:22:30;;;;;;;5.15;1.88;;;25.50;44.80;;;;;;5038567;28;20076;-74
2021/06/25 12:24:57;;;;;;;5.70;2.00;;;25.50;44.80;;;;;;5045275;28;20039;-75
2021/06/25 12:27:40;;;;;;;3.58;1.75;;;25.40;44.70;;;;;;5048739;28;20526;-76
2021/06/25 12:30:14;;;;;;;5.13;1.80;;;25.40;44.90;;;;;;5047016;28;20056;-76
2021/06/25 12:32:40;;;;;;;4.43;1.98;;;25.50;45.10;;;;;;5046479;28;20053;-75
2021/06/25 12:35:07;;;;;;;4.47;2.20;;;25.60;45.10;;;;;;5047090;28;20123;-76
2021/06/25 12:37:53;;;;;;;3.42;1.85;;;25.80;45.00;;;;;;5046892;28;20489;-77
2021/06/25 12:40:41;;;;;;;3.05;1.63;;;26.00;44.50;;;;;;5047305;28;20037;-75
2021/06/25 12:43:13;;;;;;;2.88;1.42;;;26.00;44.50;;;;;;5037813;28;20037;-75
2021/06/25 12:45:41;;;;;;;5.50;1.98;;;26.00;44.50;;;;;;5026901;28;20060;-77
2021/06/25 12:48:09;;;;;;;6.55;2.05;;;26.10;44.40;;;;;;5032744;28;20033;-78
2021/06/25 12:50:41;;;;;;;5.97;2.10;;;26.10;44.40;;;;;;5049655;28;20040;-77
2021/06/25 12:53:15;;;;;;;5.25;2.03;;;26.20;44.40;;;;;;5048565;28;20033;-78
2021/06/25 12:55:44;;;;;;;4.57;1.85;;;26.40;44.30;;;;;;5047030;28;20025;-76
2021/06/25 12:58:14;;;;;;;4.35;2.20;;;26.50;44.40;;;;;;5046242;28;20036;-77
2021/06/25 13:00:42;;;;;;;6.40;2.28;;;26.70;44.40;;;;;;5049362;28;20048;-76
2021/06/25 13:03:09;;;;;;;8.02;2.92;;;26.90;44.20;;;;;;5049941;28;20029;-76
2021/06/25 13:05:37;;;;;;;5.90;2.67;;;27.00;44.10;;;;;;5048875;28;20064;-76
2021/06/25 13:08:29;;;;;;;3.72;1.60;;;27.10;44.10;;;;;;5031989;28;20068;-78
2021/06/25 13:11:18;;;;;;;5.78;2.35;;;27.20;43.90;;;;;;5048369;28;20028;-77
2021/06/25 13:13:46;;;;;;;7.40;2.25;;;27.20;43.60;;;;;;5048085;28;20037;-78
2021/06/25 13:16:17;;;;;;;3.35;2.13;;;27.30;43.60;;;;;;5031854;28;20506;-78
2021/06/25 13:18:48;;;;;;;7.25;2.25;;;27.40;43.50;;;;;;5031847;28;20171;-77
2021/06/25 13:21:48;;;;;;;6.25;2.65;;;27.50;43.50;;;;;;5048146;28;20495;-78